createdAt,value
2023-03-23T16:00:42.393Z,3.08
2023-03-23T16:03:50.355Z,3.50
2023-03-23T16:06:56.891Z,2.95
2023-03-23T16:10:03.558Z,4.47
2023-03-23T16:13:07.145Z,5.38
2023-03-23T16:16:18.073Z,3.53
2023-03-23T16:19:24.538Z,2.75
2023-03-23T16:22:27.673Z,2.85
2023-03-23T16:25:31.478Z,5.45
2023-03-23T16:28:36.427Z,3.08
2023-03-23T16:31:41.115Z,4.22
2023-03-23T16:34:44.282Z,3.25
2023-03-23T16:37:50.397Z,5.28
2023-03-23T16:40:55.936Z,4.38
2023-03-23T16:43:59.021Z,7.53
2023-03-23T16:47:03.316Z,3.80
2023-03-23T16:50:11.640Z,2.85
2023-03-23T16:53:16.700Z,4.93
2023-03-23T16:56:22.698Z,4.65
2023-03-23T16:59:28.375Z,7.05
2023-03-23T17:02:33.316Z,4.95
2023-03-23T17:05:38.208Z,4.70
2023-03-23T17:08:41.220Z,8.18
2023-03-23T17:11:44.618Z,5.17
2023-03-23T17:14:48.176Z,8.00
2023-03-23T17:17:54.278Z,6.10
2023-03-23T17:20:57.493Z,6.03
2023-03-23T17:24:00.591Z,4.87
2023-03-23T17:27:31.413Z,6.33
2023-03-23T17:30:35.600Z,8.27
2023-03-23T17:33:39.958Z,7.83
2023-03-23T17:36:42.961Z,6.13
2023-03-23T17:39:47.601Z,6.57
2023-03-23T17:42:51.492Z,4.63
2023-03-23T17:45:55.164Z,5.80
2023-03-23T17:48:59.504Z,8.93
2023-03-23T17:52:02.670Z,6.77
2023-03-23T17:55:06.791Z,5.13
2023-03-23T17:58:10.226Z,7.30
2023-03-23T18:01:13.797Z,5.57
2023-03-23T18:04:19.453Z,6.83
2023-03-23T18:07:23.888Z,5.63
2023-03-23T18:10:29.392Z,6.87
2023-03-23T18:13:35.070Z,8.07
2023-03-23T18:16:38.807Z,7.23
2023-03-23T18:19:45.050Z,6.70
2023-03-23T18:22:48.351Z,6.30
2023-03-23T18:25:53.574Z,6.57
2023-03-23T18:28:56.963Z,6.90
2023-03-23T18:32:01.262Z,8.83
2023-03-23T18:35:08.349Z,8.53
2023-03-23T18:38:12.163Z,8.63
2023-03-23T18:41:16.477Z,9.80
2023-03-23T18:44:23.752Z,8.73
2023-03-23T18:47:29.422Z,9.00
2023-03-23T18:50:34.577Z,11.30
2023-03-23T18:53:38.237Z,10.00
2023-03-23T18:56:41.344Z,7.50
2023-03-23T18:59:44.808Z,6.30
2023-03-23T19:02:52.008Z,7.43
2023-03-23T19:05:59.438Z,9.47
2023-03-23T19:09:02.736Z,6.83
2023-03-23T19:12:14.190Z,6.97
2023-03-23T19:15:18.303Z,7.07
2023-03-23T19:18:21.555Z,7.80
2023-03-23T19:21:29.899Z,10.60
2023-03-23T19:24:35.275Z,6.30
2023-03-23T19:28:05.765Z,7.73
2023-03-23T19:31:04.858Z,5.63
2023-03-23T19:34:10.568Z,8.20
2023-03-23T19:37:18.038Z,7.17
2023-03-23T19:40:35.550Z,7.23
2023-03-23T19:43:43.189Z,6.10
2023-03-23T19:46:47.988Z,9.13
2023-03-23T19:49:52.963Z,7.83
2023-03-23T19:52:58.642Z,6.07
2023-03-23T19:56:05.136Z,7.87
2023-03-23T19:59:14.985Z,8.00
2023-03-23T20:02:18.059Z,6.60
2023-03-23T20:05:21.250Z,5.67
2023-03-23T20:08:26.050Z,6.37
2023-03-23T20:11:32.174Z,6.33
2023-03-23T20:14:36.892Z,9.70
2023-03-23T20:17:40.571Z,8.97
2023-03-23T20:20:43.817Z,7.23
2023-03-23T20:23:49.429Z,10.10
2023-03-23T20:26:52.381Z,7.60
2023-03-23T20:29:57.475Z,10.97
2023-03-23T20:33:03.777Z,9.03
2023-03-23T20:36:09.711Z,8.27
2023-03-23T20:39:21.282Z,8.20
2023-03-23T20:42:26.369Z,12.40
2023-03-23T20:45:29.414Z,12.20
2023-03-23T20:48:35.428Z,6.73
2023-03-23T20:51:40.037Z,10.90
2023-03-23T20:54:44.704Z,9.07
2023-03-23T20:57:47.852Z,8.37
2023-03-23T21:00:51.693Z,11.17
2023-03-23T21:03:57.013Z,10.40
2023-03-23T21:07:00.966Z,10.00
2023-03-23T21:10:05.769Z,13.67
2023-03-23T21:13:10.168Z,14.10
2023-03-23T21:16:13.682Z,10.30
2023-03-23T21:19:20.186Z,10.37
2023-03-23T21:22:23.226Z,10.53
2023-03-23T21:25:35.149Z,11.37
2023-03-23T21:28:38.650Z,11.33
2023-03-23T21:31:41.744Z,8.97
2023-03-23T21:34:47.402Z,12.17
2023-03-23T21:37:50.479Z,12.63
2023-03-23T21:40:55.214Z,11.37
2023-03-23T21:44:00.124Z,10.57
2023-03-23T21:47:05.090Z,9.20
2023-03-23T21:50:09.557Z,12.50
2023-03-23T21:53:18.248Z,8.60
2023-03-23T21:56:24.617Z,10.40
2023-03-23T21:59:29.791Z,9.87
2023-03-23T22:02:32.828Z,9.20
2023-03-23T22:05:55.653Z,9.30
2023-03-23T22:08:59.220Z,8.33
2023-03-23T22:12:04.501Z,11.90
2023-03-23T22:15:17.324Z,8.30
2023-03-23T22:18:20.462Z,9.07
2023-03-23T22:21:25.943Z,10.07
2023-03-23T22:24:29.275Z,10.03
2023-03-23T22:27:33.610Z,8.97
2023-03-23T22:30:37.004Z,8.90
2023-03-23T22:33:40.769Z,10.10
2023-03-23T22:36:43.783Z,10.27
2023-03-23T22:39:46.827Z,8.70
2023-03-23T22:42:51.504Z,8.70
2023-03-23T22:45:55.560Z,13.27
2023-03-23T22:48:58.600Z,8.93
2023-03-23T22:52:02.176Z,9.77
2023-03-23T22:55:08.460Z,7.43
2023-03-23T22:58:14.074Z,8.57
2023-03-23T23:01:21.510Z,10.63
2023-03-23T23:04:25.172Z,12.27
2023-03-23T23:07:28.415Z,8.27
2023-03-23T23:10:31.406Z,10.17
2023-03-23T23:13:37.932Z,9.80
2023-03-23T23:16:42.274Z,10.10
2023-03-23T23:19:45.291Z,9.60
2023-03-23T23:22:48.557Z,13.30
2023-03-23T23:25:52.149Z,8.90
2023-03-23T23:28:56.809Z,11.00
2023-03-23T23:32:02.420Z,11.57
2023-03-23T23:35:08.588Z,8.90
2023-03-23T23:38:12.581Z,9.40
2023-03-23T23:41:15.764Z,10.30
2023-03-23T23:44:20.021Z,11.10
2023-03-23T23:47:23.426Z,8.20
2023-03-23T23:50:27.066Z,9.03
2023-03-23T23:53:32.011Z,10.20
2023-03-23T23:56:35.010Z,8.47
2023-03-23T23:59:39.364Z,10.50
